Impacts METAR Board
IDs:

KZZV - Zanesville Muni, OH, US

Updated at: 2200 UTC 01 Feb 2023
Potential Impact None Slight Moderate High
Time 01/10Z 01/11Z 01/12Z 01/13Z 01/14Z 01/15Z 01/16Z 01/17Z 01/18Z 01/19Z 01/20Z 01/21Z 01/22Z
Temp17 15 15 15 18 20 22 22 25 25 27 29 28
Dewpt9 8 8 9 11 9 10 10 9 10 9 11 9
Altim30.32 30.35 30.35 30.38 30.39 30.41 30.40 30.40 30.36 30.35 30.32 30.31 30.31
VIS10 10 10 10 10 10 10 10 10 10 10 10 10
CIG-- -- -- -- -- -- -- -- -- -- -- -- --
CoverCLRCLRCLRCLRCLRCLRCLRCLRCLRCLRCLRCLRCLR
FltCatVFRVFRVFRVFRVFRVFRVFRVFRVFRVFRVFRVFRVFR
WX--------------------------
WDir330320000310019035019001500
WSpd6 4 0 0 0 3 3 3 3 5 3 3 0
WGst-- -- -- -- -- -- -- -- -- -- -- -- --
Raw hourly METARs
KZZV 010953Z AUTO 33006KT 10SM CLR M08/M13 A3032 RMK AO2 SLP281 T10831128
KZZV 011053Z AUTO 32004KT 10SM CLR M09/M13 A3035 RMK AO2 SLP290 T10941133
KZZV 011153Z AUTO 00000KT 10SM CLR M09/M13 A3035 RMK AO2 SLP293 T10941133 11056 21094 51013
KZZV 011253Z AUTO 00000KT 10SM CLR M09/M13 A3038 RMK AO2 SLP300 T10941128
KZZV 011353Z AUTO 00000KT 10SM CLR M08/M12 A3039 RMK AO2 SLP305 T10781117
KZZV 011453Z AUTO 31003KT 10SM CLR M07/M13 A3041 RMK AO2 SLP312 T10671128 51020
KZZV 011553Z AUTO VRB03KT 10SM CLR M06/M12 A3040 RMK AO2 SLP308 T10561122
KZZV 011653Z AUTO 19003KT 10SM CLR M06/M12 A3040 RMK AO2 SLP308 T10561122
KZZV 011753Z AUTO 35003KT 10SM CLR M04/M13 A3036 RMK AO2 SLP293 T10391128 11033 21100 58017
KZZV 011853Z AUTO 19005KT 10SM CLR M04/M12 A3035 RMK AO2 SLP291 T10391122
KZZV 011953Z AUTO VRB03KT 10SM CLR M03/M13 A3032 RMK AO2 SLP280 T10281128
KZZV 012053Z AUTO 15003KT 10SM CLR M02/M12 A3031 RMK AO2 SLP275 T10171117 58017
KZZV 012153Z AUTO 00000KT 10SM CLR M02/M13 A3031 RMK AO2 SLP276 T10221128



Page loaded:  22:23 UTC  |   02:23 PM Pacific  |   03:23 PM Mountain  |   04:23 PM Central  |   05:23 PM Eastern

 

ADVISORIES

FORECASTS

FORECASTS

OBSERVATIONS

USER TOOLS

ABOUT US